createdAt,value
2017-10-23T00:02:10.709Z,83.22
2017-10-23T00:04:38.373Z,83.76
2017-10-23T00:07:05.391Z,83.87
2017-10-23T00:09:32.217Z,83.61
2017-10-23T00:12:04.923Z,83.30
2017-10-23T00:14:36.991Z,83.38
2017-10-23T00:17:04.712Z,83.52
2017-10-23T00:19:34.647Z,83.76
2017-10-23T00:22:01.556Z,83.77
2017-10-23T00:24:35.013Z,84.08
2017-10-23T00:27:07.492Z,83.57
2017-10-23T00:29:34.828Z,83.67
2017-10-23T00:32:08.797Z,83.52
2017-10-23T00:34:36.127Z,83.29
2017-10-23T00:37:03.356Z,82.91
2017-10-23T00:39:36.528Z,83.32
2017-10-23T00:42:05.972Z,82.96
2017-10-23T00:44:42.422Z,82.69
2017-10-23T00:47:09.994Z,82.42
2017-10-23T00:49:44.340Z,82.44
2017-10-23T00:52:14.345Z,82.54
2017-10-23T00:54:43.122Z,82.74
2017-10-23T00:57:10.047Z,82.57
2017-10-23T00:59:37.193Z,82.56
2017-10-23T01:02:09.314Z,82.50
2017-10-23T01:04:38.201Z,82.57
2017-10-23T01:07:10.185Z,82.39
2017-10-23T01:09:37.401Z,82.65
2017-10-23T01:12:04.481Z,82.58
2017-10-23T01:14:34.284Z,82.06
2017-10-23T01:17:04.273Z,82.17
2017-10-23T01:19:31.299Z,82.23
2017-10-23T01:22:03.563Z,82.50
2017-10-23T01:24:32.189Z,82.20
2017-10-23T01:26:59.092Z,82.67
2017-10-23T01:29:27.445Z,82.30
2017-10-23T01:31:55.511Z,82.41
2017-10-23T01:34:23.325Z,82.47
2017-10-23T01:37:03.388Z,82.04
2017-10-23T01:39:30.762Z,82.54
2017-10-23T01:42:04.521Z,82.39
2017-10-23T01:44:33.245Z,82.24
2017-10-23T01:47:07.612Z,81.92
2017-10-23T01:49:35.336Z,82.27
2017-10-23T01:52:02.159Z,81.95
2017-10-23T01:54:29.019Z,81.93
2017-10-23T01:57:01.981Z,82.26
2017-10-23T01:59:28.910Z,81.73
2017-10-23T02:01:56.624Z,81.73
2017-10-23T02:04:23.771Z,81.87
2017-10-23T02:06:54.083Z,81.73
2017-10-23T02:09:21.022Z,81.66
2017-10-23T02:11:47.860Z,81.85
2017-10-23T02:14:14.809Z,82.04
2017-10-23T02:16:41.783Z,82.14
2017-10-23T02:19:14.179Z,82.26
2017-10-23T02:21:42.384Z,82.15
2017-10-23T02:24:09.236Z,82.74
2017-10-23T02:26:36.024Z,83.05
2017-10-23T02:29:02.898Z,83.51
2017-10-23T02:31:29.729Z,84.04
2017-10-23T02:33:56.532Z,83.74
2017-10-23T02:36:24.075Z,83.40
2017-10-23T02:38:50.906Z,83.17
2017-10-23T02:41:17.735Z,83.98
2017-10-23T02:43:45.317Z,85.23
2017-10-23T02:46:12.153Z,84.79
2017-10-23T02:48:38.975Z,85.72
2017-10-23T02:51:05.821Z,85.21
2017-10-23T02:53:32.628Z,84.77
2017-10-23T02:55:59.449Z,85.00
2017-10-23T02:58:26.284Z,85.31
2017-10-23T03:00:53.124Z,85.47
2017-10-23T03:03:20.701Z,85.36
2017-10-23T03:05:48.250Z,85.14
2017-10-23T03:08:15.084Z,85.06
2017-10-23T03:10:41.972Z,84.99
2017-10-23T03:13:08.942Z,85.35
2017-10-23T03:15:35.859Z,84.98
2017-10-23T03:18:02.747Z,85.26
2017-10-23T03:20:29.680Z,85.48
2017-10-23T03:22:56.545Z,86.01
2017-10-23T03:25:23.424Z,85.52
2017-10-23T03:27:50.324Z,85.47
2017-10-23T03:30:17.186Z,85.37
2017-10-23T03:32:44.117Z,85.05
2017-10-23T03:35:11.005Z,85.92
2017-10-23T03:37:37.965Z,84.90
2017-10-23T03:40:05.040Z,85.48
2017-10-23T03:42:31.933Z,85.27
2017-10-23T03:44:58.887Z,84.88
2017-10-23T03:47:26.523Z,84.86
2017-10-23T03:49:53.433Z,84.95
2017-10-23T03:52:20.332Z,85.46
2017-10-23T03:54:47.205Z,85.15
2017-10-23T03:57:14.128Z,84.77
2017-10-23T03:59:41.773Z,84.88
2017-10-23T04:02:08.680Z,84.82
2017-10-23T04:04:35.644Z,84.57
2017-10-23T04:07:02.566Z,84.36
2017-10-23T04:09:29.508Z,84.51
2017-10-23T04:11:56.515Z,84.53
2017-10-23T04:14:24.207Z,84.15
2017-10-23T04:16:51.155Z,83.94
2017-10-23T04:19:18.774Z,83.83
2017-10-23T04:21:45.653Z,83.66
2017-10-23T04:24:12.599Z,83.67
2017-10-23T04:26:39.496Z,83.82
2017-10-23T04:29:06.401Z,83.40
2017-10-23T04:31:33.332Z,83.73
2017-10-23T04:34:00.220Z,84.29
2017-10-23T04:36:27.824Z,83.94
2017-10-23T04:38:54.760Z,83.72
2017-10-23T04:41:21.652Z,83.87
2017-10-23T04:43:48.577Z,83.42
2017-10-23T04:46:16.217Z,83.76
2017-10-23T04:48:43.219Z,83.37
2017-10-23T04:51:10.118Z,83.44
2017-10-23T04:53:37.055Z,83.70
2017-10-23T04:56:04.018Z,83.63
2017-10-23T04:58:30.983Z,83.39
2017-10-23T05:00:57.923Z,83.31
2017-10-23T05:03:24.930Z,83.22
2017-10-23T05:05:51.822Z,83.21
2017-10-23T05:08:18.711Z,82.94
2017-10-23T05:10:45.670Z,82.88
2017-10-23T05:13:12.559Z,82.94
2017-10-23T05:15:39.539Z,82.79
2017-10-23T05:18:06.472Z,82.80
2017-10-23T05:20:34.101Z,82.70
2017-10-23T05:23:01.017Z,82.59
2017-10-23T05:25:27.917Z,82.99
2017-10-23T05:27:54.815Z,82.45
2017-10-23T05:30:21.744Z,82.58
2017-10-23T05:32:49.810Z,82.57
2017-10-23T05:35:17.521Z,82.45
2017-10-23T05:37:44.527Z,82.51
2017-10-23T05:40:12.941Z,82.20
2017-10-23T05:42:40.575Z,82.35
2017-10-23T05:45:07.479Z,82.44
2017-10-23T05:47:35.099Z,82.37
2017-10-23T05:50:02.019Z,82.50
2017-10-23T05:52:29.681Z,82.23
2017-10-23T05:54:56.587Z,82.47
2017-10-23T05:57:23.495Z,82.29
2017-10-23T05:59:50.400Z,82.27
2017-10-23T06:02:17.977Z,82.58
2017-10-23T06:04:44.926Z,82.36
2017-10-23T06:07:12.572Z,82.01
2017-10-23T06:09:39.499Z,81.98
2017-10-23T06:12:06.427Z,82.25
2017-10-23T06:14:33.339Z,82.60
2017-10-23T06:17:00.220Z,82.32
2017-10-23T06:19:27.162Z,82.09
2017-10-23T06:21:54.065Z,81.97
2017-10-23T06:24:21.007Z,82.16
2017-10-23T06:26:47.937Z,82.09
2017-10-23T06:29:14.853Z,82.24
2017-10-23T06:31:41.755Z,82.19
2017-10-23T06:34:08.693Z,82.32
2017-10-23T06:36:36.419Z,82.29
2017-10-23T06:39:03.565Z,81.98
2017-10-23T06:41:30.447Z,82.13
2017-10-23T06:43:57.401Z,82.33
2017-10-23T06:46:24.335Z,82.18
2017-10-23T06:48:52.014Z,82.56
2017-10-23T06:51:19.666Z,82.57
2017-10-23T06:53:46.549Z,82.60
2017-10-23T06:56:13.452Z,82.83
2017-10-23T06:58:40.424Z,82.55
2017-10-23T07:01:07.291Z,82.54
2017-10-23T07:03:34.247Z,82.21
2017-10-23T07:06:01.228Z,82.44
2017-10-23T07:08:28.102Z,82.44
2017-10-23T07:10:55.039Z,82.54
2017-10-23T07:13:21.989Z,82.23
2017-10-23T07:15:48.891Z,82.38
2017-10-23T07:18:15.763Z,82.17
2017-10-23T07:20:42.659Z,82.31
2017-10-23T07:23:09.550Z,82.41
2017-10-23T07:25:36.574Z,82.52
2017-10-23T07:28:04.223Z,82.79
2017-10-23T07:30:31.136Z,82.35
2017-10-23T07:32:57.958Z,82.40
2017-10-23T07:35:24.876Z,82.93
2017-10-23T07:37:51.756Z,82.70
2017-10-23T07:40:18.650Z,82.60
2017-10-23T07:42:45.552Z,82.53
2017-10-23T07:45:12.498Z,82.29
2017-10-23T07:47:40.092Z,82.60
2017-10-23T07:50:07.022Z,82.44
2017-10-23T07:52:33.871Z,82.29
2017-10-23T07:55:00.749Z,82.49
2017-10-23T07:57:27.654Z,82.34
2017-10-23T07:59:54.517Z,82.59
2017-10-23T08:02:21.377Z,82.31
2017-10-23T08:04:48.254Z,82.27
2017-10-23T08:07:15.114Z,82.40
2017-10-23T08:09:41.986Z,82.09
2017-10-23T08:12:08.830Z,82.36
2017-10-23T08:14:35.646Z,82.08
2017-10-23T08:17:03.223Z,82.30
2017-10-23T08:19:30.761Z,82.09
2017-10-23T08:21:57.735Z,81.86
2017-10-23T08:24:24.617Z,81.86
2017-10-23T08:26:51.463Z,81.81
2017-10-23T08:29:18.295Z,81.93
2017-10-23T08:31:45.136Z,81.78
2017-10-23T08:34:12.032Z,81.70
2017-10-23T08:36:38.849Z,81.51
2017-10-23T08:39:05.695Z,81.61
2017-10-23T08:41:33.286Z,81.57
2017-10-23T08:44:00.191Z,81.68
2017-10-23T08:46:27.017Z,81.20
2017-10-23T08:48:53.858Z,81.24
2017-10-23T08:51:21.522Z,81.26
2017-10-23T08:53:48.476Z,81.13
2017-10-23T08:56:15.358Z,81.05
2017-10-23T08:58:43.022Z,81.18
2017-10-23T09:01:10.041Z,81.14
2017-10-23T09:03:37.652Z,81.17
2017-10-23T09:06:04.494Z,81.15
2017-10-23T09:08:31.328Z,81.74
2017-10-23T09:10:58.245Z,81.00
2017-10-23T09:13:25.163Z,80.92
2017-10-23T09:15:51.996Z,80.91
2017-10-23T09:18:19.614Z,80.63
2017-10-23T09:20:46.488Z,80.50
2017-10-23T09:23:13.391Z,80.17
2017-10-23T09:25:40.947Z,80.25
2017-10-23T09:28:07.920Z,80.17
2017-10-23T09:30:34.737Z,80.19
2017-10-23T09:33:21.970Z,80.00
2017-10-23T09:35:48.816Z,79.84
2017-10-23T09:38:15.691Z,80.03
2017-10-23T09:40:42.483Z,79.98
2017-10-23T09:43:09.293Z,79.85
2017-10-23T09:45:36.151Z,79.60
2017-10-23T09:48:03.008Z,79.57
2017-10-23T09:50:29.868Z,80.17
2017-10-23T09:52:56.692Z,79.00
2017-10-23T09:55:23.520Z,79.46
2017-10-23T09:57:50.401Z,79.35
2017-10-23T10:00:17.323Z,79.27
2017-10-23T10:02:44.175Z,78.49
2017-10-23T10:05:11.045Z,78.58
2017-10-23T10:07:37.919Z,78.04
2017-10-23T10:10:04.767Z,76.83
2017-10-23T10:12:31.584Z,76.84
2017-10-23T10:14:58.389Z,77.66
2017-10-23T10:17:25.212Z,77.02
2017-10-23T10:19:52.775Z,77.57
2017-10-23T10:22:19.616Z,77.87
2017-10-23T10:24:46.464Z,78.48
2017-10-23T10:27:13.364Z,78.25
2017-10-23T10:29:40.167Z,77.90
2017-10-23T10:32:06.999Z,77.86
2017-10-23T10:34:33.834Z,77.56
2017-10-23T10:37:00.716Z,78.15
2017-10-23T10:39:27.673Z,78.31
2017-10-23T10:41:54.494Z,78.05
2017-10-23T10:44:21.409Z,78.33
2017-10-23T10:46:48.304Z,78.00
2017-10-23T10:49:15.905Z,77.57
2017-10-23T10:51:42.791Z,77.91
2017-10-23T10:54:09.753Z,77.60
2017-10-23T10:56:36.643Z,78.16
2017-10-23T10:59:03.524Z,78.18
2017-10-23T11:01:30.383Z,78.12
2017-10-23T11:03:57.302Z,77.52
2017-10-23T11:06:24.222Z,77.66
2017-10-23T11:08:51.127Z,77.54
2017-10-23T11:11:18.977Z,77.34
2017-10-23T11:13:45.896Z,78.05
2017-10-23T11:16:12.849Z,77.67
2017-10-23T11:18:40.073Z,78.61
2017-10-23T11:21:07.380Z,78.20
2017-10-23T11:23:34.241Z,78.34
2017-10-23T11:26:01.259Z,77.15
2017-10-23T11:28:28.252Z,77.07
2017-10-23T11:30:55.299Z,76.08
2017-10-23T11:33:22.620Z,75.36
2017-10-23T11:35:49.450Z,74.67
2017-10-23T11:38:17.914Z,75.42
2017-10-23T11:40:44.958Z,73.76
2017-10-23T11:43:12.542Z,74.42
2017-10-23T11:45:40.105Z,74.02
2017-10-23T11:48:07.387Z,73.25
2017-10-23T11:50:34.976Z,73.04
2017-10-23T11:53:02.556Z,70.90
2017-10-23T11:55:29.390Z,71.07
2017-10-23T11:57:56.208Z,71.60
2017-10-23T12:00:23.788Z,71.64
2017-10-23T12:02:50.985Z,71.45
2017-10-23T12:05:19.179Z,70.07
2017-10-23T12:07:46.757Z,70.01
2017-10-23T12:10:14.799Z,70.02
2017-10-23T12:12:41.668Z,70.74
2017-10-23T12:15:08.577Z,71.08
2017-10-23T12:17:35.477Z,71.38
2017-10-23T12:20:02.369Z,71.65
2017-10-23T12:22:29.291Z,71.84
2017-10-23T12:24:56.966Z,72.68
2017-10-23T12:27:24.592Z,73.25
2017-10-23T12:29:51.424Z,73.03
2017-10-23T12:32:18.356Z,73.51
2017-10-23T12:34:45.191Z,73.30
2017-10-23T12:37:12.091Z,73.91
2017-10-23T12:39:39.704Z,73.63
2017-10-23T12:42:06.596Z,73.71
2017-10-23T12:44:33.419Z,73.55
2017-10-23T12:47:00.280Z,73.47
2017-10-23T12:49:28.128Z,73.81
2017-10-23T12:51:54.986Z,73.90
2017-10-23T12:54:21.831Z,73.95
2017-10-23T12:56:48.691Z,74.56
2017-10-23T12:59:15.521Z,74.40
2017-10-23T13:01:42.368Z,74.08
2017-10-23T13:04:10.390Z,74.00
2017-10-23T13:06:38.017Z,74.21
2017-10-23T13:09:05.592Z,74.16
2017-10-23T13:11:33.197Z,74.31
2017-10-23T13:14:00.275Z,74.67
2017-10-23T13:16:27.827Z,74.79
2017-10-23T13:18:54.671Z,74.89
2017-10-23T13:21:21.869Z,74.67
2017-10-23T13:23:49.071Z,75.09
2017-10-23T13:26:16.798Z,75.27
2017-10-23T13:28:45.033Z,75.16
2017-10-23T13:31:12.691Z,75.80
2017-10-23T13:33:39.523Z,75.67
2017-10-23T13:36:07.109Z,75.80
2017-10-23T13:38:34.732Z,75.88
2017-10-23T13:41:01.705Z,76.73
2017-10-23T13:43:28.560Z,76.37
2017-10-23T13:45:55.495Z,76.61
2017-10-23T13:48:22.315Z,76.40
2017-10-23T13:50:49.159Z,76.58
2017-10-23T13:53:16.993Z,76.59
2017-10-23T13:55:46.056Z,76.55
2017-10-23T13:58:12.932Z,76.97
2017-10-23T14:00:39.782Z,77.06
2017-10-23T14:03:06.636Z,76.97
2017-10-23T14:05:33.511Z,76.85
2017-10-23T14:08:00.373Z,76.93
2017-10-23T14:10:27.235Z,76.90
2017-10-23T14:12:54.108Z,76.92
2017-10-23T14:15:20.953Z,76.86
2017-10-23T14:17:47.839Z,77.11
2017-10-23T14:20:14.748Z,77.14
2017-10-23T14:22:41.649Z,77.61
2017-10-23T14:25:08.526Z,77.21
2017-10-23T14:27:35.457Z,77.37
2017-10-23T14:30:02.406Z,77.29
2017-10-23T14:32:30.414Z,77.35
2017-10-23T14:37:24.287Z,77.26
2017-10-23T14:39:52.028Z,77.38
2017-10-23T14:42:18.943Z,77.70
2017-10-23T14:44:45.936Z,77.68
2017-10-23T14:47:12.840Z,77.38
2017-10-23T14:49:40.555Z,77.38
2017-10-23T14:52:07.481Z,77.74
2017-10-23T14:54:34.385Z,77.80
2017-10-23T14:57:01.371Z,77.72
2017-10-23T14:59:28.385Z,77.68
2017-10-23T15:01:56.048Z,78.13
2017-10-23T15:04:23.807Z,77.82
2017-10-23T15:06:50.688Z,77.83
2017-10-23T15:09:17.659Z,77.75
2017-10-23T15:11:44.560Z,78.09
2017-10-23T15:14:11.603Z,77.94
2017-10-23T15:16:39.175Z,77.98
2017-10-23T15:19:06.827Z,77.85
2017-10-23T15:21:33.755Z,77.79
2017-10-23T15:24:00.620Z,77.63
2017-10-23T15:26:27.529Z,77.72
2017-10-23T15:28:54.371Z,78.11
2017-10-23T15:31:21.252Z,77.85
2017-10-23T15:33:48.126Z,78.19
2017-10-23T15:36:15.663Z,78.14
2017-10-23T15:38:42.485Z,78.58
2017-10-23T15:41:09.385Z,78.22
2017-10-23T15:43:36.252Z,78.33
2017-10-23T15:46:03.149Z,78.65
2017-10-23T15:48:30.710Z,78.37
2017-10-23T15:50:57.553Z,78.10
2017-10-23T15:53:24.394Z,78.38
2017-10-23T15:55:51.208Z,78.96
2017-10-23T15:58:18.812Z,78.41
2017-10-23T16:00:45.679Z,78.38
2017-10-23T16:03:12.520Z,78.64
2017-10-23T16:05:39.333Z,78.45
2017-10-23T16:08:06.224Z,78.40
2017-10-23T16:10:33.820Z,78.34
2017-10-23T16:13:01.398Z,78.23
2017-10-23T16:15:28.986Z,78.55
2017-10-23T16:17:55.813Z,78.26
2017-10-23T16:20:22.695Z,78.33
2017-10-23T16:22:50.301Z,78.31
2017-10-23T16:25:17.159Z,78.26
2017-10-23T16:27:44.038Z,78.21
2017-10-23T16:30:11.692Z,78.12
2017-10-23T16:32:38.606Z,78.12
2017-10-23T16:35:05.495Z,78.20
2017-10-23T16:37:33.060Z,78.26
2017-10-23T16:39:59.943Z,78.11
2017-10-23T16:42:27.556Z,78.13
2017-10-23T16:44:54.478Z,78.12
2017-10-23T16:47:22.315Z,78.18
2017-10-23T16:49:49.179Z,78.29
2017-10-23T16:52:16.181Z,78.61
2017-10-23T16:54:42.999Z,78.59
2017-10-23T16:57:09.869Z,78.37
2017-10-23T16:59:36.699Z,78.52
2017-10-23T17:02:03.636Z,78.88
2017-10-23T17:04:31.220Z,78.81
2017-10-23T17:06:58.813Z,78.89
2017-10-23T17:09:25.681Z,78.61
2017-10-23T17:11:52.508Z,78.71
2017-10-23T17:14:19.309Z,78.77
2017-10-23T17:16:46.220Z,78.87
2017-10-23T17:19:13.114Z,78.87
2017-10-23T17:21:39.984Z,79.54
2017-10-23T17:24:06.841Z,78.98
2017-10-23T17:26:33.815Z,79.03
2017-10-23T17:29:00.635Z,79.08
2017-10-23T17:31:27.501Z,79.77
2017-10-23T17:33:55.086Z,79.69
2017-10-23T17:36:22.657Z,79.77
2017-10-23T17:38:49.518Z,79.75
2017-10-23T17:41:17.133Z,79.39
2017-10-23T17:43:43.989Z,79.39
2017-10-23T17:46:10.809Z,79.92
2017-10-23T17:48:37.721Z,79.82
2017-10-23T17:51:04.618Z,79.79
2017-10-23T17:53:31.494Z,80.11
2017-10-23T17:55:58.414Z,79.95
2017-10-23T17:58:25.239Z,79.88
2017-10-23T18:00:52.179Z,80.16
2017-10-23T18:03:19.465Z,80.26
2017-10-23T18:05:47.100Z,80.34
2017-10-23T18:08:13.943Z,80.31
2017-10-23T18:10:40.804Z,80.35
2017-10-23T18:13:07.977Z,80.20
2017-10-23T18:15:35.131Z,81.20
2017-10-23T18:18:01.967Z,80.32
2017-10-23T18:20:30.535Z,80.36
2017-10-23T18:22:59.197Z,80.99
2017-10-23T18:25:26.199Z,80.70
2017-10-23T18:27:54.504Z,80.43
2017-10-23T18:30:21.800Z,80.43
2017-10-23T18:32:49.348Z,81.83
2017-10-23T18:35:16.429Z,80.87
2017-10-23T18:37:43.858Z,81.27
2017-10-23T18:40:12.080Z,81.09
2017-10-23T18:42:39.924Z,83.88
2017-10-23T18:45:08.981Z,81.58
2017-10-23T18:47:37.408Z,82.76
2017-10-23T18:50:06.133Z,83.70
2017-10-23T18:52:34.750Z,82.58
2017-10-23T18:55:02.535Z,81.82
2017-10-23T18:57:30.734Z,83.16
2017-10-23T18:59:57.723Z,82.14
2017-10-23T19:02:25.432Z,82.88
2017-10-23T19:04:52.414Z,83.01
2017-10-23T19:07:20.991Z,82.66
2017-10-23T19:09:49.424Z,85.09
2017-10-23T19:12:18.883Z,86.70
2017-10-23T19:14:47.514Z,84.48
2017-10-23T19:17:15.928Z,83.51
2017-10-23T19:19:43.633Z,85.40
2017-10-23T19:22:10.555Z,83.51
2017-10-23T19:24:38.497Z,82.78
2017-10-23T19:27:07.373Z,82.71
2017-10-23T19:29:35.991Z,83.39
2017-10-23T19:32:04.341Z,83.68
2017-10-23T19:34:32.662Z,85.94
2017-10-23T19:37:00.424Z,85.40
2017-10-23T19:39:27.905Z,85.34
2017-10-23T19:41:56.762Z,86.64
2017-10-23T19:44:25.139Z,86.79
2017-10-23T19:46:53.603Z,86.55
2017-10-23T19:49:22.092Z,88.47
2017-10-23T19:51:50.642Z,85.54
2017-10-23T19:54:18.605Z,86.31
2017-10-23T19:56:45.514Z,88.07
2017-10-23T19:59:12.341Z,85.14
2017-10-23T20:01:39.247Z,84.75
2017-10-23T20:04:06.111Z,84.38
2017-10-23T20:06:32.984Z,84.32
2017-10-23T20:09:00.131Z,85.21
2017-10-23T20:11:27.238Z,86.83
2017-10-23T20:13:55.137Z,84.88
2017-10-23T20:16:22.029Z,85.69
2017-10-23T20:18:48.880Z,86.21
2017-10-23T20:21:15.846Z,85.19
2017-10-23T20:23:42.719Z,84.74
2017-10-23T20:26:09.605Z,84.98
2017-10-23T20:28:36.507Z,84.71
2017-10-23T20:31:04.121Z,84.96
2017-10-23T20:33:30.995Z,85.80
2017-10-23T20:35:57.913Z,85.21
2017-10-23T20:38:24.764Z,85.11
2017-10-23T20:40:53.389Z,85.39
2017-10-23T20:43:20.283Z,85.27
2017-10-23T20:45:47.122Z,85.43
2017-10-23T20:48:13.961Z,85.47
2017-10-23T20:50:40.853Z,85.59
2017-10-23T20:53:07.714Z,85.46
2017-10-23T20:55:34.552Z,85.68
2017-10-23T20:58:01.427Z,86.65
2017-10-23T21:00:28.332Z,85.90
2017-10-23T21:02:55.185Z,85.83
2017-10-23T21:05:22.057Z,85.87
2017-10-23T21:07:48.908Z,86.08
2017-10-23T21:10:15.845Z,85.87
2017-10-23T21:12:42.706Z,86.06
2017-10-23T21:15:09.564Z,85.96
2017-10-23T21:17:36.404Z,86.14
2017-10-23T21:20:03.328Z,86.10
2017-10-23T21:22:30.191Z,86.47
2017-10-23T21:24:57.040Z,86.22
2017-10-23T21:27:23.889Z,87.39
2017-10-23T21:29:50.779Z,86.60
2017-10-23T21:32:17.632Z,87.60
2017-10-23T21:34:44.521Z,86.23
2017-10-23T21:37:12.088Z,85.97
2017-10-23T21:39:38.924Z,86.10
2017-10-23T21:42:05.807Z,86.03
2017-10-23T21:44:32.751Z,85.94
2017-10-23T21:47:08.675Z,86.53
2017-10-23T21:49:36.278Z,86.55
2017-10-23T21:52:03.182Z,86.00
2017-10-23T21:54:30.006Z,87.01
2017-10-23T21:56:56.877Z,86.19
2017-10-23T21:59:23.734Z,86.16
2017-10-23T22:01:50.588Z,86.52
2017-10-23T22:04:17.452Z,86.35
2017-10-23T22:06:44.312Z,86.96
2017-10-23T22:09:11.140Z,87.19
2017-10-23T22:11:38.080Z,86.52
2017-10-23T22:14:05.681Z,86.45
2017-10-23T22:16:32.536Z,86.95
2017-10-23T22:19:00.125Z,86.29
2017-10-23T22:21:27.026Z,86.26
2017-10-23T22:23:53.962Z,86.47
2017-10-23T22:26:20.822Z,86.40
2017-10-23T22:28:47.671Z,86.32
2017-10-23T22:31:14.498Z,86.47
2017-10-23T22:33:41.413Z,86.50
2017-10-23T22:36:08.266Z,86.54
2017-10-23T22:38:35.100Z,86.37
2017-10-23T22:41:02.698Z,86.31
2017-10-23T22:43:29.523Z,87.00
2017-10-23T22:45:56.401Z,86.91
2017-10-23T22:48:24.060Z,86.66
2017-10-23T22:50:50.963Z,87.22
2017-10-23T22:53:17.817Z,86.57
2017-10-23T22:55:44.661Z,87.81
2017-10-23T22:58:12.296Z,86.75
2017-10-23T23:00:39.293Z,86.55
2017-10-23T23:03:06.149Z,86.53
2017-10-23T23:05:33.044Z,86.66
2017-10-23T23:07:59.955Z,86.58
2017-10-23T23:10:26.836Z,86.58
2017-10-23T23:12:53.756Z,86.62
2017-10-23T23:15:20.651Z,87.03
2017-10-23T23:17:47.528Z,86.53
2017-10-23T23:20:14.409Z,86.72
2017-10-23T23:22:42.060Z,87.03
2017-10-23T23:25:08.970Z,86.78
2017-10-23T23:27:35.883Z,86.63
2017-10-23T23:30:02.805Z,86.96
2017-10-23T23:32:30.395Z,87.21
2017-10-23T23:34:57.288Z,86.68
2017-10-23T23:37:24.151Z,86.82
2017-10-23T23:39:50.977Z,86.85
2017-10-23T23:42:17.811Z,87.23
2017-10-23T23:44:44.630Z,86.98
2017-10-23T23:47:11.495Z,87.46
2017-10-23T23:49:38.312Z,86.89
2017-10-23T23:52:05.142Z,87.37
2017-10-23T23:54:32.756Z,87.07
2017-10-23T23:56:59.619Z,87.12
2017-10-23T23:59:26.468Z,86.82
